Custer, Custer County Airport (KCUT)

NameCuster County Airport
CityCuster
CountryUnited States
ICAOKCUT
IATA
Altitude1707 m
CoordinatesGoogle Map
Live Air TrafficLiveATC.net
METARKCUT 242153Z AUTO VRB04KT 10SM FEW060 20/09 A2988 RMK AO2 LTG DSNT N SLP069 T02000089
2019-06-24 21:53:00 Wind: North (0°) 2.06 m/s - Visibility: 16093.4 m - Temperature: 20 °C - Dew point: 9 °C - Humidity: 49.3% - Pressure: 1011.85 hPa

Sorry, no flights used the airport in this database.